Time;durP1;ratioP1;P1;durP2;ratioP2;P2;SDS_P1;SDS_P2;PMS_P1;PMS_P2;Temp;Humidity;BMP_temperature;BMP_pressure;BME280_temperature;BME280_humidity;BME280_pressure;Samples;Min_cycle;Max_cycle;Signal;HPM_P1;HPM_P2
2022/04/20 00:01:42;;;;;;;0.00;0.00;;;11.00;99.90;;;;;;5094947;28;20059;-72
2022/04/20 00:04:11;;;;;;;0.55;0.10;;;11.00;99.90;;;;;;5076541;28;20498;-72
2022/04/20 00:06:37;;;;;;;0.03;0.00;;;11.00;99.90;;;;;;5095157;28;20077;-79
2022/04/20 00:09:03;;;;;;;2.70;0.40;;;11.00;99.90;;;;;;5095201;28;20050;-73
2022/04/20 00:11:28;;;;;;;0.00;0.00;;;11.00;99.90;;;;;;5094811;28;20060;-78
2022/04/20 00:13:54;;;;;;;0.00;0.00;;;11.00;99.90;;;;;;5094758;28;20077;-72
2022/04/20 00:16:20;;;;;;;0.00;0.00;;;11.00;99.90;;;;;;5094599;28;20038;-72
2022/04/20 00:18:45;;;;;;;8.05;1.65;;;11.00;99.90;;;;;;5094136;28;20475;-73
2022/04/20 00:21:11;;;;;;;0.65;0.65;;;10.90;99.90;;;;;;5094159;28;20103;-79
2022/04/20 00:23:36;;;;;;;0.00;0.00;;;10.90;99.90;;;;;;5093458;28;20050;-72
2022/04/20 00:26:02;;;;;;;0.10;0.10;;;10.90;99.90;;;;;;5094426;28;20031;-73
2022/04/20 00:28:28;;;;;;;0.00;0.00;;;10.80;99.90;;;;;;5094884;28;20039;-73
2022/04/20 00:30:53;;;;;;;0.00;0.00;;;10.80;99.90;;;;;;5076290;28;20032;-72
2022/04/20 00:33:19;;;;;;;0.43;0.43;;;10.80;99.90;;;;;;5097520;28;20036;-73
2022/04/20 00:35:45;;;;;;;0.00;0.00;;;10.70;99.90;;;;;;5094580;28;20038;-72
2022/04/20 00:38:11;;;;;;;0.00;0.00;;;10.70;99.90;;;;;;5094240;28;20012;-72
2022/04/20 00:40:37;;;;;;;0.00;0.00;;;10.70;99.90;;;;;;5094462;28;20020;-79
2022/04/20 00:43:03;;;;;;;0.43;0.10;;;10.70;99.90;;;;;;5094341;28;20027;-77
2022/04/20 00:45:30;;;;;;;0.00;0.00;;;10.70;99.90;;;;;;5094418;28;20107;-77
2022/04/20 00:47:56;;;;;;;0.00;0.00;;;10.70;99.90;;;;;;5095396;28;20410;-72
2022/04/20 00:50:23;;;;;;;0.00;0.00;;;10.70;99.90;;;;;;5114348;28;20031;-79
2022/04/20 00:52:48;;;;;;;0.32;0.32;;;10.70;99.90;;;;;;5114403;28;20055;-73
2022/04/20 00:55:14;;;;;;;0.03;0.03;;;10.70;99.90;;;;;;5114122;28;20485;-78
2022/04/20 00:57:40;;;;;;;2.03;1.33;;;10.60;99.90;;;;;;5113954;28;20061;-79
2022/04/20 01:00:07;;;;;;;0.65;0.32;;;10.60;99.90;;;;;;5113933;28;20031;-78
2022/04/20 01:02:33;;;;;;;0.60;0.17;;;10.60;99.90;;;;;;5114243;28;20084;-72
2022/04/20 01:04:58;;;;;;;0.00;0.00;;;10.60;99.90;;;;;;5114120;28;20020;-72
2022/04/20 01:07:24;;;;;;;0.00;0.00;;;10.50;99.90;;;;;;5114244;28;20125;-78
2022/04/20 01:09:50;;;;;;;0.10;0.10;;;10.40;99.90;;;;;;5114529;28;20088;-73
2022/04/20 01:12:17;;;;;;;0.10;0.10;;;10.40;99.90;;;;;;5114063;28;20031;-78
2022/04/20 01:14:43;;;;;;;0.00;0.00;;;10.30;99.90;;;;;;5113163;28;20516;-78
2022/04/20 01:17:09;;;;;;;0.52;0.47;;;10.20;99.90;;;;;;5115462;28;20100;-73
2022/04/20 01:19:40;;;;;;;0.05;0.05;;;10.20;99.90;;;;;;5106674;28;20016;-79
2022/04/20 01:22:07;;;;;;;0.03;0.03;;;10.10;99.90;;;;;;5093312;28;20387;-79
2022/04/20 01:24:33;;;;;;;0.17;0.17;;;10.10;99.90;;;;;;5093569;28;20058;-78
2022/04/20 01:27:00;;;;;;;0.00;0.00;;;10.10;99.90;;;;;;5093771;28;20394;-78
2022/04/20 01:29:26;;;;;;;0.00;0.00;;;10.10;99.90;;;;;;5093390;28;20020;-79
2022/04/20 01:31:52;;;;;;;0.00;0.00;;;10.00;99.90;;;;;;5096689;28;20490;-74
2022/04/20 01:34:18;;;;;;;0.00;0.00;;;10.00;99.90;;;;;;5092110;28;20030;-79
2022/04/20 01:36:45;;;;;;;0.00;0.00;;;9.90;99.90;;;;;;5093327;28;20028;-78
2022/04/20 01:39:11;;;;;;;0.10;0.10;;;9.80;99.90;;;;;;5073252;28;20056;-78
2022/04/20 01:41:37;;;;;;;0.00;0.00;;;9.70;99.90;;;;;;5073182;28;20031;-73
2022/04/20 01:44:03;;;;;;;2.05;1.10;;;9.70;99.90;;;;;;5072827;28;20032;-77
2022/04/20 01:46:28;;;;;;;0.00;0.00;;;9.60;99.90;;;;;;5073404;28;20072;-73
2022/04/20 01:48:54;;;;;;;0.00;0.00;;;9.50;99.90;;;;;;5072618;28;20468;-73
2022/04/20 01:54:04;;;;;;;0.10;0.10;;;9.50;99.90;;;;;;5094565;28;20039;-78
2022/04/20 01:56:29;;;;;;;0.00;0.00;;;9.40;99.90;;;;;;5113509;28;20039;-73
2022/04/20 01:58:55;;;;;;;0.30;0.30;;;9.40;99.90;;;;;;5113611;28;20062;-72
2022/04/20 02:04:06;;;;;;;0.38;0.17;;;9.40;99.90;;;;;;5113081;28;20540;-78
2022/04/20 02:06:32;;;;;;;0.03;0.03;;;9.30;99.90;;;;;;5113463;28;20102;-78
2022/04/20 02:08:58;;;;;;;0.00;0.00;;;9.30;99.90;;;;;;5112834;28;20027;-72
2022/04/20 02:11:23;;;;;;;0.03;0.03;;;9.30;99.90;;;;;;5113306;28;20110;-72
2022/04/20 02:13:49;;;;;;;0.00;0.00;;;9.30;99.90;;;;;;5112921;28;20196;-72
2022/04/20 02:16:15;;;;;;;0.00;0.00;;;9.30;99.90;;;;;;5113197;28;20031;-79
2022/04/20 02:18:40;;;;;;;0.10;0.10;;;9.30;99.90;;;;;;5113095;28;20019;-73
2022/04/20 02:21:06;;;;;;;0.03;0.03;;;9.30;99.90;;;;;;5093729;28;20077;-78
2022/04/20 02:23:31;;;;;;;0.00;0.00;;;9.20;99.90;;;;;;5092314;28;20479;-78
2022/04/20 02:25:57;;;;;;;0.32;0.32;;;9.30;99.90;;;;;;5074457;28;20028;-72
2022/04/20 02:28:23;;;;;;;0.00;0.00;;;9.30;99.90;;;;;;5092997;28;20158;-72
2022/04/20 02:30:48;;;;;;;0.00;0.00;;;9.20;99.90;;;;;;5092883;28;20028;-72
2022/04/20 02:33:14;;;;;;;0.22;0.22;;;9.20;99.90;;;;;;5093039;28;20062;-73
2022/04/20 02:35:43;;;;;;;0.00;0.00;;;9.20;99.90;;;;;;5092517;28;20028;-72
2022/04/20 02:38:10;;;;;;;0.00;0.00;;;9.20;99.90;;;;;;5092794;28;20020;-72
2022/04/20 02:40:38;;;;;;;0.22;0.22;;;9.20;99.90;;;;;;5092754;28;20081;-72
2022/04/20 02:43:03;;;;;;;0.00;0.00;;;9.20;99.90;;;;;;5092025;28;20020;-73
2022/04/20 02:45:29;;;;;;;0.00;0.00;;;9.20;99.90;;;;;;5092900;28;20021;-72
2022/04/20 02:47:55;;;;;;;0.00;0.00;;;9.10;99.90;;;;;;5116392;28;20043;-72
2022/04/20 02:50:21;;;;;;;0.00;0.00;;;9.10;99.90;;;;;;5116657;28;20398;-72
2022/04/20 02:52:46;;;;;;;0.73;0.68;;;9.10;99.90;;;;;;5116549;28;20031;-76
2022/04/20 02:55:12;;;;;;;0.30;0.20;;;9.20;99.90;;;;;;5096224;28;20027;-73
2022/04/20 02:57:38;;;;;;;0.00;0.00;;;9.20;99.90;;;;;;5096244;28;20024;-72
2022/04/20 03:00:05;;;;;;;0.20;0.20;;;9.20;99.90;;;;;;5095997;28;20024;-72
2022/04/20 03:02:31;;;;;;;0.00;0.00;;;9.10;99.90;;;;;;5096612;28;20020;-73
2022/04/20 03:04:57;;;;;;;0.38;0.38;;;9.10;99.90;;;;;;5096144;28;20463;-78
2022/04/20 03:07:23;;;;;;;0.25;0.25;;;9.10;99.90;;;;;;5096049;28;20058;-72
2022/04/20 03:09:49;;;;;;;0.00;0.00;;;9.10;99.90;;;;;;5096254;28;20103;-73
2022/04/20 03:12:15;;;;;;;14.05;1.13;;;9.10;99.90;;;;;;5095675;28;20562;-72
2022/04/20 03:14:40;;;;;;;0.70;0.65;;;9.10;99.90;;;;;;5095948;28;20024;-72
2022/04/20 03:17:06;;;;;;;0.00;0.00;;;9.10;99.90;;;;;;5095840;28;20024;-73
2022/04/20 03:19:32;;;;;;;0.00;0.00;;;9.10;99.90;;;;;;5094757;28;20024;-79
2022/04/20 03:21:57;;;;;;;0.10;0.10;;;9.10;99.90;;;;;;5096241;28;20031;-72
2022/04/20 03:24:23;;;;;;;0.10;0.10;;;9.10;99.90;;;;;;5095241;28;20024;-72
2022/04/20 03:26:49;;;;;;;0.30;0.30;;;9.10;99.90;;;;;;5095443;28;20126;-72
2022/04/20 03:29:14;;;;;;;0.00;0.00;;;9.10;99.90;;;;;;5095335;28;20035;-79
2022/04/20 03:31:40;;;;;;;0.00;0.00;;;9.10;99.90;;;;;;5095918;28;20401;-78
2022/04/20 03:34:06;;;;;;;0.05;0.05;;;9.10;99.90;;;;;;5077315;28;20403;-78
2022/04/20 03:36:32;;;;;;;0.10;0.10;;;9.10;99.90;;;;;;5095734;28;20095;-73
2022/04/20 03:38:58;;;;;;;1.17;0.90;;;9.10;99.90;;;;;;5095539;28;20021;-72
2022/04/20 03:41:23;;;;;;;0.05;0.05;;;9.10;99.90;;;;;;5077285;28;20055;-73
2022/04/20 03:43:49;;;;;;;0.00;0.00;;;9.10;99.90;;;;;;5095433;28;20020;-72
2022/04/20 03:46:15;;;;;;;0.00;0.00;;;9.00;99.90;;;;;;5098657;28;20518;-72
2022/04/20 03:48:42;;;;;;;0.10;0.10;;;9.00;99.90;;;;;;5097241;28;20070;-73
2022/04/20 03:51:07;;;;;;;0.10;0.10;;;9.00;99.90;;;;;;5115938;28;20051;-73
2022/04/20 03:53:33;;;;;;;0.00;0.00;;;9.00;99.90;;;;;;5108154;28;20058;-73
2022/04/20 03:55:59;;;;;;;0.10;0.10;;;9.00;99.90;;;;;;5094611;28;20512;-79
2022/04/20 03:58:24;;;;;;;0.43;0.40;;;8.90;99.90;;;;;;5094785;28;20114;-79
2022/04/20 04:00:51;;;;;;;0.25;0.25;;;8.90;99.90;;;;;;5096884;28;20475;-80
2022/04/20 04:03:20;;;;;;;0.10;0.10;;;8.90;99.90;;;;;;5095350;28;20475;-72
2022/04/20 04:05:46;;;;;;;0.00;0.00;;;8.90;99.90;;;;;;5094774;28;20088;-73
2022/04/20 04:08:12;;;;;;;0.00;0.00;;;8.90;99.90;;;;;;5095164;28;20020;-79
2022/04/20 04:10:38;;;;;;;0.00;0.00;;;8.90;99.90;;;;;;5094921;28;20030;-73
2022/04/20 04:13:03;;;;;;;0.25;0.25;;;8.90;99.90;;;;;;5094310;28;20420;-73
2022/04/20 04:15:29;;;;;;;0.63;0.28;;;8.90;99.90;;;;;;5094654;28;20063;-73
2022/04/20 04:17:58;;;;;;;0.00;0.00;;;8.90;99.90;;;;;;5076503;28;20108;-79
2022/04/20 04:20:26;;;;;;;1.98;1.13;;;8.90;99.90;;;;;;5094077;28;20361;-73
2022/04/20 04:22:52;;;;;;;0.00;0.00;;;8.90;99.90;;;;;;5095241;28;20020;-73
2022/04/20 04:25:18;;;;;;;0.03;0.03;;;8.90;99.90;;;;;;5093943;28;20024;-73
2022/04/20 04:27:43;;;;;;;0.00;0.00;;;8.80;99.90;;;;;;5094016;28;20430;-73
2022/04/20 04:30:10;;;;;;;0.00;0.00;;;8.90;99.90;;;;;;5094697;28;20458;-73
2022/04/20 04:32:35;;;;;;;2.13;0.80;;;8.80;99.90;;;;;;5094571;28;20111;-73
2022/04/20 04:35:01;;;;;;;0.10;0.10;;;8.80;99.90;;;;;;5094278;28;20059;-73
2022/04/20 04:37:27;;;;;;;0.00;0.00;;;8.80;99.90;;;;;;5094328;28;20014;-78
2022/04/20 04:39:53;;;;;;;0.10;0.10;;;8.80;99.90;;;;;;5094429;28;20020;-75
2022/04/20 04:42:19;;;;;;;0.00;0.00;;;8.70;99.90;;;;;;5094504;28;20110;-80
2022/04/20 04:44:45;;;;;;;0.00;0.00;;;8.80;99.90;;;;;;5114922;28;20084;-80
2022/04/20 04:49:55;;;;;;;0.08;0.08;;;8.80;99.90;;;;;;5072535;28;20128;-73
2022/04/20 04:52:20;;;;;;;1.77;0.65;;;8.70;99.90;;;;;;5075981;28;20112;-74
2022/04/20 04:54:46;;;;;;;1.88;0.43;;;8.70;99.90;;;;;;5091236;28;20028;-73
2022/04/20 04:57:12;;;;;;;0.50;0.50;;;8.70;99.90;;;;;;5096164;28;20490;-80
2022/04/20 04:59:39;;;;;;;0.10;0.10;;;8.70;99.90;;;;;;5073592;28;20495;-80
2022/04/20 05:02:06;;;;;;;0.00;0.00;;;8.70;99.90;;;;;;5073497;28;20031;-73
2022/04/20 05:04:32;;;;;;;0.20;0.20;;;8.80;99.90;;;;;;5072407;28;20021;-73
2022/04/20 05:06:58;;;;;;;0.22;0.22;;;8.80;99.90;;;;;;5073641;28;20032;-80
2022/04/20 05:09:23;;;;;;;0.00;0.00;;;8.80;99.90;;;;;;5072724;28;20040;-79
2022/04/20 05:11:49;;;;;;;0.10;0.10;;;8.70;99.90;;;;;;5072445;28;20111;-79
2022/04/20 05:14:15;;;;;;;0.00;0.00;;;8.70;99.90;;;;;;5072833;28;20048;-80
2022/04/20 05:16:41;;;;;;;0.00;0.00;;;8.70;99.90;;;;;;5072128;28;20031;-80
2022/04/20 05:19:07;;;;;;;0.00;0.00;;;8.70;99.90;;;;;;5071330;28;20124;-73
2022/04/20 05:21:33;;;;;;;1.23;0.30;;;8.70;99.90;;;;;;5073070;28;20021;-79
2022/04/20 05:23:59;;;;;;;0.20;0.20;;;8.70;99.90;;;;;;5072190;28;20028;-73
2022/04/20 05:26:25;;;;;;;0.10;0.10;;;8.70;99.90;;;;;;5071363;28;20021;-79
2022/04/20 05:28:51;;;;;;;3.03;1.45;;;8.70;99.90;;;;;;5070320;28;20035;-79
2022/04/20 05:31:18;;;;;;;0.00;0.00;;;8.70;99.90;;;;;;5072266;28;20024;-80
2022/04/20 05:33:43;;;;;;;8.95;0.52;;;8.70;99.90;;;;;;5072340;28;20029;-80
2022/04/20 05:36:09;;;;;;;26.00;1.02;;;8.70;99.90;;;;;;5052857;28;20484;-79
2022/04/20 05:44:03;;;;;;;0.15;0.15;;;8.70;99.90;;;;;;5072320;28;20454;-73
2022/04/20 05:46:30;;;;;;;0.63;0.35;;;8.70;99.90;;;;;;5072605;28;20052;-73
2022/04/20 05:48:56;;;;;;;0.38;0.15;;;8.70;99.90;;;;;;5072413;28;20031;-73
2022/04/20 05:51:21;;;;;;;0.00;0.00;;;8.60;99.90;;;;;;5072644;28;20032;-80
2022/04/20 05:53:47;;;;;;;0.10;0.10;;;8.60;99.90;;;;;;5074943;28;20458;-73
2022/04/20 05:56:13;;;;;;;0.00;0.00;;;8.70;99.90;;;;;;5075692;28;20033;-73
2022/04/20 05:58:39;;;;;;;0.00;0.00;;;8.70;99.90;;;;;;5071252;28;20017;-79
2022/04/20 06:01:04;;;;;;;2.38;0.32;;;8.70;99.90;;;;;;5070852;28;20476;-73
2022/04/20 06:03:33;;;;;;;0.03;0.03;;;8.70;99.90;;;;;;5072261;28;20480;-79
2022/04/20 06:06:02;;;;;;;0.00;0.00;;;8.70;99.90;;;;;;5071647;28;20069;-79
2022/04/20 06:08:29;;;;;;;0.30;0.20;;;8.70;99.90;;;;;;5076273;28;20030;-73
2022/04/20 06:10:55;;;;;;;0.22;0.20;;;8.80;99.90;;;;;;5092481;28;20047;-73
2022/04/20 06:13:21;;;;;;;0.00;0.00;;;8.80;99.90;;;;;;5091569;28;20418;-80
2022/04/20 06:15:46;;;;;;;0.00;0.00;;;8.80;99.90;;;;;;5092265;28;20027;-73
2022/04/20 06:18:12;;;;;;;0.20;0.20;;;8.80;99.90;;;;;;5073982;28;20788;-80
2022/04/20 06:20:40;;;;;;;0.00;0.00;;;8.80;99.90;;;;;;5077538;28;20020;-81
2022/04/20 06:23:05;;;;;;;0.00;0.00;;;8.80;99.90;;;;;;5075962;28;20028;-80
2022/04/20 06:25:31;;;;;;;0.03;0.03;;;8.80;99.90;;;;;;5075040;28;20025;-81
2022/04/20 06:27:57;;;;;;;0.00;0.00;;;8.80;99.90;;;;;;5074244;28;20471;-80
2022/04/20 06:30:22;;;;;;;0.00;0.00;;;8.80;99.90;;;;;;5094077;28;20077;-74
2022/04/20 06:32:48;;;;;;;0.00;0.00;;;8.80;99.90;;;;;;5081128;28;20028;-73
2022/04/20 06:35:13;;;;;;;0.20;0.20;;;8.80;99.90;;;;;;5075426;28;20036;-78
2022/04/20 06:37:39;;;;;;;1.55;0.95;;;8.80;99.90;;;;;;5075440;28;20020;-79
2022/04/20 06:40:05;;;;;;;0.00;0.00;;;8.80;99.90;;;;;;5075394;28;20031;-73
2022/04/20 06:42:33;;;;;;;0.60;0.35;;;8.80;99.90;;;;;;5075820;28;20430;-73
2022/04/20 06:44:58;;;;;;;0.38;0.32;;;8.80;99.90;;;;;;5076007;28;20021;-73
2022/04/20 06:47:24;;;;;;;2.97;1.75;;;8.80;99.90;;;;;;5075460;28;20036;-78
2022/04/20 06:49:49;;;;;;;0.00;0.00;;;8.80;99.90;;;;;;5074875;28;20060;-77
2022/04/20 07:00:27;;;;;;;0.00;0.00;;;8.90;99.90;;;;;;5075377;28;20035;-73
2022/04/20 07:03:00;;;;;;;0.25;0.20;;;9.00;99.90;;;;;;5074238;28;20021;-73
2022/04/20 07:05:26;;;;;;;0.00;0.00;;;9.00;99.90;;;;;;5072091;28;20030;-78
2022/04/20 07:07:52;;;;;;;2.80;0.30;;;9.00;99.90;;;;;;5074900;28;20099;-77
2022/04/20 07:10:18;;;;;;;0.10;0.10;;;9.10;99.90;;;;;;5056518;28;20443;-73
2022/04/20 07:12:43;;;;;;;0.00;0.00;;;9.10;99.90;;;;;;5056021;28;20121;-73
2022/04/20 07:15:09;;;;;;;0.00;0.00;;;9.20;99.90;;;;;;5073551;28;20024;-78
2022/04/20 07:17:35;;;;;;;0.20;0.20;;;9.20;99.90;;;;;;5064786;28;20546;-80
2022/04/20 07:20:01;;;;;;;0.00;0.00;;;9.20;99.90;;;;;;5068706;28;20024;-72
2022/04/20 07:22:27;;;;;;;0.10;0.10;;;9.20;99.90;;;;;;5073256;28;20016;-80
2022/04/20 07:24:53;;;;;;;0.00;0.00;;;9.20;99.90;;;;;;5072869;28;20020;-73
2022/04/20 07:27:19;;;;;;;0.10;0.10;;;9.30;99.90;;;;;;5073580;28;20064;-80
2022/04/20 07:29:45;;;;;;;0.00;0.00;;;9.30;99.90;;;;;;5073915;28;20059;-73
2022/04/20 07:32:10;;;;;;;0.10;0.10;;;9.30;99.90;;;;;;5092988;28;20031;-77
2022/04/20 07:34:36;;;;;;;0.20;0.20;;;9.30;99.90;;;;;;5094355;28;20094;-80
2022/04/20 07:37:03;;;;;;;0.00;0.00;;;9.40;99.90;;;;;;5092387;28;20020;-73
2022/04/20 07:39:29;;;;;;;0.08;0.08;;;9.40;99.90;;;;;;5074051;28;20016;-73
2022/04/20 07:41:54;;;;;;;0.10;0.10;;;9.40;99.90;;;;;;5074152;28;20399;-79
2022/04/20 07:44:20;;;;;;;0.15;0.15;;;9.40;99.90;;;;;;5074675;28;20033;-80
2022/04/20 07:46:46;;;;;;;0.03;0.03;;;9.40;99.90;;;;;;5082534;28;20056;-73
2022/04/20 07:51:56;;;;;;;0.10;0.10;;;9.40;99.90;;;;;;5094153;28;20083;-79
2022/04/20 07:54:22;;;;;;;0.00;0.00;;;9.40;99.90;;;;;;5107500;28;20504;-79
2022/04/20 07:56:48;;;;;;;0.00;0.00;;;9.40;99.90;;;;;;5114415;28;20062;-79
2022/04/20 07:59:13;;;;;;;0.10;0.10;;;9.50;99.90;;;;;;5113701;28;20059;-72
2022/04/20 08:01:40;;;;;;;0.00;0.00;;;9.60;99.90;;;;;;5113778;28;20072;-73
2022/04/20 08:04:05;;;;;;;0.05;0.05;;;9.70;99.90;;;;;;5114113;28;20095;-73
2022/04/20 08:06:31;;;;;;;0.00;0.00;;;9.70;99.90;;;;;;5098058;28;20111;-79
2022/04/20 08:08:56;;;;;;;0.25;0.25;;;9.70;99.90;;;;;;5089971;28;20023;-79
2022/04/20 08:11:22;;;;;;;0.45;0.28;;;9.80;99.90;;;;;;5114172;28;20173;-73
2022/04/20 08:16:32;;;;;;;0.00;0.00;;;9.70;99.90;;;;;;5114195;28;20088;-80
2022/04/20 08:18:58;;;;;;;2.65;0.55;;;9.70;99.90;;;;;;5102657;28;20139;-78
2022/04/20 08:21:23;;;;;;;0.00;0.00;;;9.70;99.90;;;;;;5088293;28;20043;-82
2022/04/20 08:23:49;;;;;;;0.00;0.00;;;9.70;99.90;;;;;;5102219;28;20425;-73
2022/04/20 08:26:15;;;;;;;1.55;1.17;;;9.70;99.90;;;;;;5093395;28;20028;-73
2022/04/20 08:28:41;;;;;;;1.13;0.63;;;9.80;99.90;;;;;;5093519;28;20036;-73
2022/04/20 08:31:07;;;;;;;0.00;0.00;;;9.80;99.90;;;;;;5093259;28;20020;-81
2022/04/20 08:33:35;;;;;;;6.35;0.73;;;9.80;99.90;;;;;;5093089;28;20475;-82
2022/04/20 08:36:01;;;;;;;0.05;0.05;;;9.90;99.90;;;;;;5073585;28;20411;-73
2022/04/20 08:38:27;;;;;;;0.57;0.38;;;9.90;99.90;;;;;;5093591;28;20028;-80
2022/04/20 08:40:54;;;;;;;1.88;0.70;;;10.00;99.90;;;;;;5110863;28;20023;-73
2022/04/20 08:43:20;;;;;;;0.10;0.10;;;10.10;99.90;;;;;;5113472;28;20111;-73
2022/04/20 08:45:49;;;;;;;0.40;0.40;;;10.10;99.90;;;;;;5113682;28;20106;-79
2022/04/20 08:48:14;;;;;;;0.10;0.10;;;10.20;99.90;;;;;;5113903;28;20040;-80
2022/04/20 08:50:40;;;;;;;0.20;0.20;;;10.30;99.90;;;;;;5113304;28;20474;-73
2022/04/20 08:53:06;;;;;;;1.55;0.43;;;10.20;99.90;;;;;;5113319;28;20019;-79
2022/04/20 08:55:32;;;;;;;0.00;0.00;;;10.20;99.90;;;;;;5095274;28;20027;-74
2022/04/20 08:57:57;;;;;;;0.90;0.43;;;10.30;99.90;;;;;;5108517;28;20490;-80
2022/04/20 09:00:26;;;;;;;0.13;0.03;;;10.30;99.90;;;;;;5113495;28;20024;-79
2022/04/20 09:02:55;;;;;;;0.75;0.75;;;10.40;99.90;;;;;;5112852;28;20043;-74
2022/04/20 09:05:22;;;;;;;1.60;1.08;;;10.40;99.90;;;;;;5107942;28;20031;-79
2022/04/20 09:07:48;;;;;;;0.63;0.63;;;10.50;99.90;;;;;;5078003;28;20089;-80
2022/04/20 09:10:16;;;;;;;0.70;0.70;;;10.60;99.90;;;;;;5113409;28;20027;-74
2022/04/20 09:12:43;;;;;;;0.10;0.10;;;10.60;99.90;;;;;;5113008;28;20379;-74
2022/04/20 09:15:11;;;;;;;0.03;0.03;;;10.70;99.90;;;;;;5112591;28;20534;-74
2022/04/20 09:17:44;;;;;;;0.20;0.10;;;10.80;99.90;;;;;;5099710;28;20024;-74
2022/04/20 09:20:17;;;;;;;1.48;0.40;;;10.90;99.90;;;;;;5086082;28;20031;-74
2022/04/20 09:22:59;;;;;;;0.00;0.00;;;11.00;99.90;;;;;;5092039;28;20020;-81
2022/04/20 09:25:33;;;;;;;0.00;0.00;;;11.00;99.90;;;;;;5110061;28;20077;-75
2022/04/20 09:27:59;;;;;;;5.57;2.05;;;11.10;99.90;;;;;;5111767;28;20038;-80
2022/04/20 09:30:24;;;;;;;1.02;0.98;;;11.00;99.90;;;;;;5113017;28;20504;-74
2022/04/20 09:32:50;;;;;;;0.98;0.45;;;11.10;99.90;;;;;;5113025;28;20063;-81
2022/04/20 09:35:20;;;;;;;0.00;0.00;;;11.10;99.90;;;;;;5111979;28;20487;-81
2022/04/20 09:38:03;;;;;;;0.25;0.20;;;11.20;99.90;;;;;;5112833;28;20012;-81
2022/04/20 09:40:33;;;;;;;0.03;0.03;;;11.20;99.90;;;;;;5113226;28;20020;-81
2022/04/20 09:43:03;;;;;;;0.10;0.10;;;11.30;99.90;;;;;;5111866;28;20385;-77
2022/04/20 09:45:29;;;;;;;0.10;0.10;;;11.30;99.90;;;;;;5112792;28;20027;-75
2022/04/20 09:50:41;;;;;;;0.25;0.25;;;11.50;99.90;;;;;;5112545;28;20076;-74
2022/04/20 09:53:10;;;;;;;0.17;0.15;;;11.60;99.90;;;;;;5108825;28;20092;-74
2022/04/20 09:55:37;;;;;;;0.30;0.30;;;11.70;99.90;;;;;;5099057;28;20031;-73
2022/04/20 09:58:20;;;;;;;0.45;0.38;;;11.80;99.90;;;;;;5111035;28;20595;-74
2022/04/20 10:00:52;;;;;;;0.88;0.88;;;11.90;99.90;;;;;;5112055;28;20024;-81
2022/04/20 10:03:29;;;;;;;0.00;0.00;;;12.10;99.90;;;;;;5105412;28;20024;-74
2022/04/20 10:05:56;;;;;;;1.88;0.93;;;12.40;99.90;;;;;;5087628;28;20112;-74
2022/04/20 10:08:23;;;;;;;1.40;0.73;;;12.60;99.90;;;;;;5091806;28;20028;-74
2022/04/20 10:10:52;;;;;;;1.48;0.57;;;12.80;99.90;;;;;;5095643;28;20118;-74
2022/04/20 10:13:18;;;;;;;0.60;0.47;;;12.80;99.90;;;;;;5090163;28;20028;-81
2022/04/20 10:18:33;;;;;;;2.05;0.65;;;13.30;99.90;;;;;;5084425;28;20058;-79
2022/04/20 10:21:01;;;;;;;0.13;0.13;;;13.70;99.90;;;;;;5090170;28;20028;-74
2022/04/20 10:23:31;;;;;;;0.30;0.30;;;14.00;99.90;;;;;;5091286;28;20444;-74
2022/04/20 10:25:59;;;;;;;1.85;0.65;;;14.20;99.90;;;;;;5092552;28;20032;-74
2022/04/20 10:28:36;;;;;;;0.20;0.08;;;14.30;99.90;;;;;;5090545;28;20028;-74
2022/04/20 10:31:09;;;;;;;5.85;1.75;;;14.50;99.90;;;;;;5090839;28;20035;-81
2022/04/20 10:33:38;;;;;;;0.20;0.15;;;14.30;99.90;;;;;;5090667;28;20905;-74
2022/04/20 10:36:09;;;;;;;2.53;0.73;;;14.50;99.90;;;;;;5093089;28;20085;-81
2022/04/20 10:38:35;;;;;;;0.35;0.35;;;14.50;99.90;;;;;;5090610;28;20027;-75
2022/04/20 10:41:09;;;;;;;1.83;1.48;;;14.50;99.90;;;;;;5090605;28;20031;-75
2022/04/20 10:43:41;;;;;;;0.70;0.70;;;14.50;99.90;;;;;;5090627;28;20099;-82
2022/04/20 10:46:15;;;;;;;1.38;0.35;;;14.70;99.90;;;;;;5091704;28;20044;-81
2022/04/20 10:48:48;;;;;;;2.88;0.52;;;14.50;99.90;;;;;;5051238;28;20037;-75
2022/04/20 10:51:16;;;;;;;1.08;0.40;;;14.80;99.90;;;;;;5051310;28;20117;-82
2022/04/20 10:53:48;;;;;;;1.23;0.47;;;14.70;99.90;;;;;;5065515;28;20028;-75
2022/04/20 10:56:15;;;;;;;2.67;0.98;;;14.70;99.90;;;;;;5091265;28;20028;-83
2022/04/20 10:58:51;;;;;;;7.68;0.63;;;14.70;99.90;;;;;;5091568;28;20030;-83
2022/04/20 11:01:16;;;;;;;0.88;0.47;;;14.60;99.90;;;;;;5052620;28;20060;-84
2022/04/20 11:03:58;;;;;;;1.20;0.40;;;14.60;99.90;;;;;;5091054;28;20443;-75
2022/04/20 11:06:58;;;;;;;0.45;0.30;;;14.40;99.90;;;;;;5077635;28;20028;-75
2022/04/20 11:09:42;;;;;;;2.50;1.00;;;14.40;99.90;;;;;;5092145;28;20081;-83
2022/04/20 11:21:09;;;;;;;2.17;1.00;;;14.70;99.90;;;;;;5072314;28;20154;-75
2022/04/20 11:24:06;;;;;;;0.70;0.60;;;14.60;99.90;;;;;;5074502;28;20013;-84
2022/04/20 11:26:54;;;;;;;1.88;0.52;;;14.50;99.90;;;;;;5074155;28;20028;-84
2022/04/20 11:29:26;;;;;;;0.60;0.52;;;14.50;99.90;;;;;;5072480;28;20024;-75
2022/04/20 11:32:03;;;;;;;2.80;1.57;;;14.70;99.90;;;;;;5072502;28;20483;-75
2022/04/20 11:34:33;;;;;;;1.30;0.65;;;14.50;99.90;;;;;;5072529;28;20657;-75
2022/04/20 11:37:00;;;;;;;2.60;2.22;;;14.50;99.90;;;;;;5072388;28;20016;-75
2022/04/20 11:39:28;;;;;;;0.57;0.50;;;14.60;99.90;;;;;;5091010;28;20380;-75
2022/04/20 11:41:58;;;;;;;1.33;0.80;;;14.80;99.90;;;;;;5092437;28;20432;-75
2022/04/20 11:44:39;;;;;;;2.55;0.75;;;14.90;99.90;;;;;;5092410;28;20047;-75
2022/04/20 11:47:07;;;;;;;1.10;1.08;;;14.90;99.90;;;;;;5098014;28;20421;-75
2022/04/20 11:49:36;;;;;;;4.68;1.67;;;14.90;99.90;;;;;;5112125;28;20478;-82
2022/04/20 11:52:06;;;;;;;3.30;0.77;;;15.00;99.90;;;;;;5112949;28;20027;-83
2022/04/20 11:54:33;;;;;;;2.38;1.05;;;15.10;99.90;;;;;;5112067;28;20041;-75
2022/04/20 11:56:58;;;;;;;2.42;1.23;;;15.20;99.90;;;;;;5112542;28;20023;-75
2022/04/20 11:59:24;;;;;;;2.17;1.55;;;15.20;99.90;;;;;;5112325;28;20095;-82
2022/04/20 12:01:51;;;;;;;1.92;1.55;;;15.20;99.90;;;;;;5098694;28;20052;-75
2022/04/20 12:04:21;;;;;;;3.35;1.48;;;15.10;99.90;;;;;;5089058;28;20024;-82
2022/04/20 12:06:52;;;;;;;23.00;2.80;;;15.30;99.90;;;;;;5093638;28;20155;-75
2022/04/20 12:09:26;;;;;;;3.20;1.40;;;15.40;99.90;;;;;;5093203;28;20027;-83
2022/04/20 12:11:54;;;;;;;3.08;1.27;;;15.80;99.90;;;;;;5093477;28;20490;-75
2022/04/20 12:14:21;;;;;;;2.38;1.63;;;15.90;99.90;;;;;;5093268;28;20391;-82
2022/04/20 12:16:47;;;;;;;2.33;1.35;;;16.10;99.90;;;;;;5093859;28;20031;-83
2022/04/20 12:19:13;;;;;;;3.35;1.90;;;16.10;99.90;;;;;;5092000;28;20030;-83
2022/04/20 12:21:46;;;;;;;2.00;1.08;;;16.00;99.90;;;;;;5093465;28;20024;-75
2022/04/20 12:24:20;;;;;;;1.55;0.98;;;16.00;99.90;;;;;;5093425;28;20058;-75
2022/04/20 12:26:47;;;;;;;6.88;2.13;;;16.20;99.90;;;;;;5093398;28;20405;-75
2022/04/20 12:29:14;;;;;;;6.97;2.20;;;16.40;99.90;;;;;;5092568;28;20067;-82
2022/04/20 12:31:42;;;;;;;4.13;1.67;;;16.60;99.90;;;;;;5093301;28;20394;-75
2022/04/20 12:34:09;;;;;;;0.68;0.60;;;16.60;99.90;;;;;;5092880;28;20027;-75
2022/04/20 12:36:54;;;;;;;6.07;1.02;;;16.60;99.90;;;;;;5092520;28;20032;-75
2022/04/20 12:39:34;;;;;;;3.25;1.70;;;16.70;99.90;;;;;;5081772;28;20093;-75
2022/04/20 12:42:11;;;;;;;3.00;2.05;;;17.00;99.90;;;;;;5093250;28;20637;-82
2022/04/20 12:44:54;;;;;;;2.45;1.58;;;17.30;99.90;;;;;;5093391;28;20031;-81
2022/04/20 12:47:20;;;;;;;5.10;1.60;;;17.40;99.90;;;;;;5093478;28;20043;-82
2022/04/20 12:49:53;;;;;;;4.53;2.13;;;17.30;99.90;;;;;;5092681;28;20028;-75
2022/04/20 12:52:23;;;;;;;3.22;1.83;;;17.30;99.90;;;;;;5093185;28;20028;-81
2022/04/20 12:54:54;;;;;;;3.00;1.50;;;17.00;99.90;;;;;;5092639;28;20079;-75
2022/04/20 13:03:12;;;;;;;2.38;1.58;;;17.00;99.90;;;;;;5092546;28;20112;-82
2022/04/20 13:05:45;;;;;;;10.65;1.55;;;17.00;99.90;;;;;;5092307;28;20020;-81
2022/04/20 13:08:11;;;;;;;;;;;17.20;99.90;;;;;;5100220;28;20135;-75
2022/04/20 13:10:39;;;;;;;5.68;1.40;;;17.30;99.90;;;;;;5076249;28;19914;-75
2022/04/20 13:13:05;;;;;;;5.95;2.22;;;17.50;99.90;;;;;;5093140;28;20103;-75
2022/04/20 13:15:31;;;;;;;5.18;1.83;;;17.40;99.90;;;;;;5092475;28;20122;-75
2022/04/20 13:17:57;;;;;;;3.55;1.23;;;17.30;99.90;;;;;;5112007;28;20024;-80
2022/04/20 13:20:24;;;;;;;3.40;1.42;;;17.00;99.90;;;;;;5111699;28;20085;-75
2022/04/20 13:22:50;;;;;;;4.53;0.95;;;16.80;99.90;;;;;;5113066;28;20012;-75
2022/04/20 13:27:59;;;;;;;1.65;1.25;;;16.70;99.90;;;;;;5112606;28;20054;-75
2022/04/20 13:30:35;;;;;;;4.70;1.40;;;16.70;99.90;;;;;;5110565;28;20027;-81
2022/04/20 13:33:03;;;;;;;3.85;1.50;;;16.70;99.90;;;;;;5112425;28;20509;-75
2022/04/20 13:35:29;;;;;;;5.68;1.00;;;16.80;99.90;;;;;;5111751;28;20023;-81
2022/04/20 13:37:55;;;;;;;3.03;2.22;;;16.70;99.90;;;;;;5112151;28;20440;-75
2022/04/20 13:40:22;;;;;;;2.05;1.33;;;16.60;99.90;;;;;;5111133;28;20114;-75
2022/04/20 13:42:48;;;;;;;2.78;1.00;;;16.70;99.90;;;;;;5100855;28;20022;-75
2022/04/20 13:45:14;;;;;;;3.03;1.90;;;16.60;99.90;;;;;;5092023;28;20420;-81